Aérodrome :
LOGIN :

S'inscrire | Disclaimer

   EN    FR    IT 

 










Légende :    VFR   VFR Marginal   IFR   IFR Intensif   IFR Très Intensif
Visi : 
Plafond : 
>= 8 km
>= 3000ft
5 à 8 km
1000 à 3000 ft
1500m à 5 km
500 à 1000 ft
800 à 1500m
200 à 500 ft
< 800m
< 200 ft
Symboles :   Orages  Brouillard  Fortes neiges  Fortes précipitations  Vent > 20 kt
SIGMETs :   Divers  Orages  Givrage  Turbulence  Onde Orograph.  Cendres Volcan.







- Altitude de l'aérodrome : 63 ft
- Code IATA : BZM


EHWO - Woensdrecht Airbase

DERNIER METAR :
  • 221755Z AUTO 29004KT 250V320 9999 NCD 19/13 Q1009 BLU

METARs EXPIRÉS :
  • 221725Z AUTO 28005KT 9999 NCD 20/15 Q1009 BLU
  • 221655Z AUTO 29003KT 250V310 9999 NCD 21/16 Q1009 BLU
  • 221634Z AUTO 29004KT 260V340 9000 BR BKN290 20/17 Q1009 BLU
  • 221625Z AUTO 29006KT 270V330 9999 TS OVC260 20/17 Q1009 BLU
  • 221611Z AUTO 33004KT 280V350 9999 FEW015CB BKN270 20/16 Q1009 BLU
  • 221601Z AUTO VRB02KT 8000 TS BR FEW015CB BKN280 19/17 Q1009 BLU
  • 221555Z AUTO VRB02KT 7000 TS BR FEW015CB SCT057 BKN300 19/17 Q1009 REGRRA WHT
  • 221545Z AUTO VRB03KT 3900 TS BR FEW001 FEW015CB SCT025 BKN055 18/17 Q1009 GRN
  • 221541Z AUTO 18006KT 160V320 3100 TSGRRA FEW001 SCT013 SCT015CB BKN047 17/16 Q1010 YLO
  • 221537Z AUTO 24009KT 160V320 2600 TSGR FEW007 SCT015CB BKN057 17/16 Q1010 YLO
  • 221525Z AUTO 26008KT 240V300 5000 TSRA SCT015CB SCT060 BKN082 18/16 Q1009 WHT
  • 221511Z AUTO 25013KT 220V300 5000 TSRA FEW014 FEW015CB SCT040 BKN051 18/16 Q1009 WHT
  • 221510Z AUTO 26015KT 230V320 3000 +TSRA FEW014 FEW015CB SCT055 BKN074 18/16 Q1009 YLO

Prévision TAF périmée.
Pas de NOTAMs connus pour ce terrain.
1 SIGMET publié pour la FIR Amsterdam (EHAA) :
 
Orages fréquents
EHAA SIGMET 1 VALID 221519/221819 EHDB
EHAA AMSTERDAM FIR FRQ TS OBS AT 1515Z E OF LINE N5119 E00416 - N5324 E00703 TOP FL350 MOV NE 25KT NC=



MET'MAP, la Météo Aéronautique d'un coup d'oeil ! - Copyright ORBIFLY Décembre 2007 - Disclaimer

ORBIFLY MET'MAP TEAM :

Programmation & Développement : Alexandra Zaïnal
Conception & Développement : Baudouin d'Aumeries
Co-Programmation & Développement : Marc-Olivier Méhu
Soutien technique & logistique : Manuel Goepfert

Contact : metmap@orbifly.com




SOURCES & CREDITS :

   NOAA